Time;durP1;ratioP1;P1;durP2;ratioP2;P2;SDS_P1;SDS_P2;PMS_P1;PMS_P2;Temp;Humidity;BMP_temperature;BMP_pressure;BME280_temperature;BME280_humidity;BME280_pressure;Samples;Min_cycle;Max_cycle;Signal;HPM_P1;HPM_P2
2022/02/25 00:01:25;;;;;;;2.45;2.20;;;8.60;94.90;;;;;;5111450;27;20633;-65
2022/02/25 00:03:53;;;;;;;3.13;2.78;;;8.60;94.80;;;;;;5114256;27;20248;-65
2022/02/25 00:06:21;;;;;;;3.28;2.97;;;8.60;94.70;;;;;;5110077;27;20211;-64
2022/02/25 00:08:48;;;;;;;3.38;2.78;;;8.60;94.70;;;;;;5114321;27;20254;-64
2022/02/25 00:11:15;;;;;;;3.97;2.10;;;8.60;94.80;;;;;;5102047;27;20245;-65
2022/02/25 00:13:41;;;;;;;2.33;1.60;;;8.60;94.90;;;;;;5114396;28;20223;-64
2022/02/25 00:16:08;;;;;;;7.95;5.43;;;8.60;94.80;;;;;;5099882;27;20238;-64
2022/02/25 00:18:35;;;;;;;7.18;3.42;;;8.60;94.60;;;;;;5113517;27;20215;-65
2022/02/25 00:21:03;;;;;;;1.48;1.10;;;8.60;94.70;;;;;;5113838;27;20243;-65
2022/02/25 00:23:30;;;;;;;2.67;1.38;;;8.60;94.40;;;;;;5113488;28;20234;-65
2022/02/25 00:25:57;;;;;;;2.88;2.30;;;8.50;94.50;;;;;;5113965;28;20234;-65
2022/02/25 00:28:24;;;;;;;3.08;1.90;;;8.60;94.60;;;;;;5101136;27;20220;-65
2022/02/25 00:30:50;;;;;;;2.97;2.60;;;8.60;94.70;;;;;;5112594;27;20232;-65
2022/02/25 00:33:17;;;;;;;2.20;1.42;;;8.60;94.70;;;;;;5111750;27;20219;-64
2022/02/25 00:35:44;;;;;;;2.30;1.80;;;8.50;94.60;;;;;;5113711;28;20613;-63
2022/02/25 00:38:12;;;;;;;2.30;2.10;;;8.50;94.70;;;;;;5101020;28;20223;-65
2022/02/25 00:40:39;;;;;;;3.22;2.00;;;8.60;94.90;;;;;;5107504;28;20224;-64
2022/02/25 00:43:06;;;;;;;6.10;4.72;;;8.50;94.80;;;;;;5108914;28;20222;-63
2022/02/25 00:45:33;;;;;;;4.30;3.60;;;8.50;95.30;;;;;;5107171;27;20220;-65
2022/02/25 00:48:00;;;;;;;2.60;2.40;;;8.50;94.60;;;;;;5107167;28;20227;-64
2022/02/25 00:50:27;;;;;;;3.17;2.05;;;8.50;94.60;;;;;;5099903;28;20223;-64
2022/02/25 00:52:55;;;;;;;8.05;5.38;;;8.50;94.70;;;;;;5113914;28;20239;-64
2022/02/25 00:55:23;;;;;;;3.70;2.30;;;8.50;94.60;;;;;;5099833;28;20242;-64
2022/02/25 00:57:52;;;;;;;3.38;2.85;;;8.60;94.50;;;;;;5100270;28;20216;-65
2022/02/25 01:00:20;;;;;;;3.97;2.20;;;8.50;94.10;;;;;;5105894;28;20227;-64
2022/02/25 01:02:48;;;;;;;2.83;1.88;;;8.60;94.10;;;;;;5107448;27;20223;-65
2022/02/25 01:05:15;;;;;;;5.75;2.80;;;8.50;93.90;;;;;;5100895;28;20223;-64
2022/02/25 01:07:43;;;;;;;5.30;3.17;;;8.50;93.90;;;;;;5113711;27;20214;-64
2022/02/25 01:10:12;;;;;;;6.82;3.90;;;8.50;93.90;;;;;;5107106;28;20600;-64
2022/02/25 01:12:41;;;;;;;5.57;4.53;;;8.50;93.80;;;;;;5109099;28;20219;-64
2022/02/25 01:15:08;;;;;;;3.13;2.38;;;8.50;93.80;;;;;;5103959;28;20228;-65
2022/02/25 01:17:35;;;;;;;2.65;2.20;;;8.50;93.60;;;;;;5102531;28;20215;-65
2022/02/25 01:20:04;;;;;;;2.42;1.73;;;8.50;93.60;;;;;;5113441;27;20219;-64
2022/02/25 01:22:31;;;;;;;1.75;1.38;;;8.50;93.70;;;;;;5112840;27;20223;-64
2022/02/25 01:24:58;;;;;;;3.00;2.00;;;8.50;93.60;;;;;;5113252;27;20616;-64
2022/02/25 01:27:25;;;;;;;3.50;1.90;;;8.50;93.70;;;;;;5109265;28;20220;-65
2022/02/25 01:29:54;;;;;;;2.67;1.85;;;8.60;93.80;;;;;;5103899;28;20223;-64
2022/02/25 01:32:20;;;;;;;2.38;1.75;;;8.50;93.70;;;;;;5111051;28;20225;-64
2022/02/25 01:34:47;;;;;;;3.10;2.65;;;8.50;93.80;;;;;;5113205;27;20553;-64
2022/02/25 01:37:14;;;;;;;2.50;1.92;;;8.50;93.80;;;;;;5112063;27;20233;-63
2022/02/25 01:39:41;;;;;;;2.78;2.58;;;8.50;93.80;;;;;;5113036;27;20245;-64
2022/02/25 01:42:09;;;;;;;2.95;1.95;;;8.50;93.90;;;;;;5107344;27;20700;-64
2022/02/25 01:44:40;;;;;;;5.88;3.00;;;8.50;93.90;;;;;;5112350;27;20420;-64
2022/02/25 01:47:11;;;;;;;2.08;1.88;;;8.60;93.80;;;;;;5112294;28;20284;-65
2022/02/25 01:49:38;;;;;;;3.60;1.70;;;8.60;93.90;;;;;;5111818;27;20680;-63
2022/02/25 01:52:07;;;;;;;1.75;1.50;;;8.60;94.00;;;;;;5111959;27;20230;-65
2022/02/25 01:54:34;;;;;;;1.85;1.55;;;8.60;94.00;;;;;;5111535;28;20227;-65
2022/02/25 01:57:02;;;;;;;5.45;3.83;;;8.60;94.10;;;;;;5112399;28;20219;-65
2022/02/25 01:59:31;;;;;;;5.45;3.00;;;8.60;94.10;;;;;;5100945;28;20220;-65
2022/02/25 02:01:59;;;;;;;2.70;2.40;;;8.60;94.20;;;;;;5105392;28;20239;-65
2022/02/25 02:04:27;;;;;;;4.15;2.10;;;8.60;94.20;;;;;;5103974;28;20223;-65
2022/02/25 02:06:54;;;;;;;3.05;1.80;;;8.60;94.20;;;;;;5098612;28;20227;-64
2022/02/25 02:09:21;;;;;;;2.28;1.95;;;8.60;94.20;;;;;;5098743;28;20223;-64
2022/02/25 02:11:51;;;;;;;5.43;4.90;;;8.60;94.30;;;;;;5111461;27;20226;-65
2022/02/25 02:14:19;;;;;;;3.53;2.03;;;8.60;94.30;;;;;;5110491;28;20356;-64
2022/02/25 02:16:48;;;;;;;3.05;2.47;;;8.50;94.40;;;;;;5097498;28;20918;-65
2022/02/25 02:19:16;;;;;;;3.30;2.58;;;8.50;94.40;;;;;;5110252;27;20227;-64
2022/02/25 02:21:47;;;;;;;4.10;3.15;;;8.60;94.60;;;;;;5109821;28;20230;-65
2022/02/25 02:24:16;;;;;;;4.45;2.90;;;8.50;94.50;;;;;;5102977;27;20222;-65
2022/02/25 02:26:44;;;;;;;5.28;4.78;;;8.50;94.70;;;;;;5110331;28;20223;-64
2022/02/25 02:29:11;;;;;;;2.58;2.03;;;8.50;94.70;;;;;;5097932;28;20223;-64
2022/02/25 02:31:39;;;;;;;4.82;3.05;;;8.50;94.60;;;;;;5111545;28;20227;-64
2022/02/25 02:34:07;;;;;;;2.60;2.20;;;8.50;94.50;;;;;;5100494;27;20227;-64
2022/02/25 02:36:34;;;;;;;3.28;1.95;;;8.50;94.60;;;;;;5111933;28;20733;-64
2022/02/25 02:39:02;;;;;;;7.18;2.78;;;8.50;94.50;;;;;;5098505;28;20229;-64
2022/02/25 02:41:30;;;;;;;2.60;2.00;;;8.50;94.70;;;;;;5099676;28;20238;-64
2022/02/25 02:43:59;;;;;;;10.07;6.75;;;8.50;94.60;;;;;;5109289;28;20288;-63
2022/02/25 02:46:26;;;;;;;6.25;4.03;;;8.50;94.70;;;;;;5111852;27;20313;-64
2022/02/25 02:48:53;;;;;;;5.75;3.97;;;8.50;94.70;;;;;;5108077;28;20231;-64
2022/02/25 02:51:19;;;;;;;6.20;3.58;;;8.40;94.60;;;;;;5103031;28;20227;-64
2022/02/25 02:53:46;;;;;;;4.00;2.67;;;8.40;94.70;;;;;;5097516;28;20219;-64
2022/02/25 02:56:14;;;;;;;3.70;2.45;;;8.40;94.80;;;;;;5100112;28;20228;-64
2022/02/25 02:58:42;;;;;;;5.03;3.40;;;8.40;94.70;;;;;;5109605;27;20495;-64
2022/02/25 03:01:09;;;;;;;6.80;3.25;;;8.30;94.60;;;;;;5111967;28;20568;-64
2022/02/25 03:03:35;;;;;;;4.25;2.70;;;8.30;94.70;;;;;;5103011;27;20623;-64
2022/02/25 03:06:02;;;;;;;3.63;2.80;;;8.30;94.90;;;;;;5114669;27;20227;-64
2022/02/25 03:08:29;;;;;;;4.45;3.30;;;8.30;94.90;;;;;;5101669;27;20222;-64
2022/02/25 03:10:56;;;;;;;7.10;2.72;;;8.20;94.90;;;;;;5114314;27;20566;-64
2022/02/25 03:13:23;;;;;;;3.67;2.40;;;8.20;94.80;;;;;;5115725;28;20234;-63
2022/02/25 03:15:51;;;;;;;3.92;3.38;;;8.20;94.90;;;;;;5112633;27;20259;-64
2022/02/25 03:18:18;;;;;;;9.32;3.15;;;8.20;94.80;;;;;;5115496;27;20219;-63
2022/02/25 03:20:45;;;;;;;4.80;3.22;;;8.20;95.00;;;;;;5115155;28;20238;-63
2022/02/25 03:23:12;;;;;;;5.72;2.70;;;8.20;95.00;;;;;;5115137;27;20542;-64
2022/02/25 03:25:39;;;;;;;4.32;2.40;;;8.20;95.00;;;;;;5115052;27;20276;-64
2022/02/25 03:28:06;;;;;;;3.50;2.38;;;8.20;95.00;;;;;;5113680;27;20227;-64
2022/02/25 03:30:33;;;;;;;10.32;8.13;;;8.20;95.10;;;;;;5115213;28;20234;-64
2022/02/25 03:33:01;;;;;;;8.48;4.00;;;8.10;95.10;;;;;;5102297;28;20625;-63
2022/02/25 03:35:30;;;;;;;6.13;3.75;;;8.10;95.20;;;;;;5114248;27;20223;-64
2022/02/25 03:37:57;;;;;;;4.82;3.50;;;8.10;95.30;;;;;;5112660;28;20234;-64
2022/02/25 03:40:24;;;;;;;4.40;2.47;;;8.10;95.30;;;;;;5111976;27;20535;-64
2022/02/25 03:42:51;;;;;;;4.95;2.53;;;8.10;95.30;;;;;;5114664;28;20231;-64
2022/02/25 03:45:18;;;;;;;2.90;2.33;;;8.00;95.30;;;;;;5105363;28;20269;-64
2022/02/25 03:47:45;;;;;;;5.50;3.45;;;8.10;95.40;;;;;;5107697;28;20234;-64
2022/02/25 03:50:13;;;;;;;3.47;2.47;;;8.00;95.40;;;;;;5105002;28;20227;-64
2022/02/25 03:52:43;;;;;;;4.90;3.58;;;8.00;95.50;;;;;;5100818;27;20234;-64
2022/02/25 03:55:11;;;;;;;8.68;4.25;;;8.00;95.60;;;;;;5103349;27;20321;-64
2022/02/25 03:57:38;;;;;;;4.68;3.40;;;7.90;95.50;;;;;;5107557;28;20223;-64
2022/02/25 04:00:07;;;;;;;4.45;2.88;;;8.00;95.60;;;;;;5106248;27;20229;-64
2022/02/25 04:02:34;;;;;;;5.80;3.75;;;7.90;95.60;;;;;;5100468;28;20604;-64
2022/02/25 04:05:00;;;;;;;5.63;3.08;;;7.90;95.60;;;;;;5102966;28;20285;-64
2022/02/25 04:07:29;;;;;;;8.32;3.42;;;7.90;95.70;;;;;;5108012;28;20234;-64
2022/02/25 04:09:55;;;;;;;4.50;2.75;;;7.90;95.80;;;;;;5101836;28;20224;-64
2022/02/25 04:12:22;;;;;;;4.35;3.10;;;7.90;95.80;;;;;;5113537;28;20230;-64
2022/02/25 04:14:49;;;;;;;6.55;3.85;;;7.80;95.80;;;;;;5102092;27;20223;-64
2022/02/25 04:17:19;;;;;;;4.95;3.80;;;7.80;96.00;;;;;;5106745;27;20231;-64
2022/02/25 04:19:46;;;;;;;6.43;3.60;;;7.70;96.00;;;;;;5113165;27;20644;-64
2022/02/25 04:22:13;;;;;;;4.07;2.88;;;7.70;96.20;;;;;;5114503;27;20245;-64
2022/02/25 04:24:41;;;;;;;6.40;3.60;;;7.80;96.30;;;;;;5114155;27;20222;-64
2022/02/25 04:27:10;;;;;;;9.05;6.25;;;7.70;96.30;;;;;;5100109;28;20241;-64
2022/02/25 04:29:37;;;;;;;5.72;4.13;;;7.70;96.40;;;;;;5107868;28;20238;-64
2022/02/25 04:32:04;;;;;;;4.30;3.88;;;7.70;96.40;;;;;;5107094;27;20224;-64
2022/02/25 04:34:31;;;;;;;12.52;5.35;;;7.60;96.40;;;;;;5109347;27;20218;-63
2022/02/25 04:36:58;;;;;;;6.88;4.38;;;7.60;96.40;;;;;;5113819;28;20226;-63
2022/02/25 04:39:24;;;;;;;10.77;4.35;;;7.70;96.40;;;;;;5100217;27;20216;-64
2022/02/25 04:41:53;;;;;;;4.88;3.40;;;7.70;96.40;;;;;;5105931;28;20239;-64
2022/02/25 04:44:21;;;;;;;5.53;4.20;;;7.70;96.30;;;;;;5107467;28;20565;-63
2022/02/25 04:46:49;;;;;;;6.70;3.78;;;7.60;96.30;;;;;;5101873;27;20226;-64
2022/02/25 04:49:16;;;;;;;3.03;2.70;;;7.60;96.40;;;;;;5109588;28;20223;-65
2022/02/25 04:51:43;;;;;;;4.45;3.22;;;7.60;96.40;;;;;;5103730;27;20233;-64
2022/02/25 04:54:10;;;;;;;5.03;3.65;;;7.60;96.50;;;;;;5108063;27;20237;-63
2022/02/25 04:56:38;;;;;;;6.72;3.97;;;7.60;96.40;;;;;;5113410;27;20553;-63
2022/02/25 04:59:06;;;;;;;7.25;5.68;;;7.60;96.30;;;;;;5113455;28;20677;-64
2022/02/25 05:01:33;;;;;;;4.85;2.90;;;7.60;96.30;;;;;;5112161;27;20219;-63
2022/02/25 05:04:00;;;;;;;8.57;4.28;;;7.60;96.30;;;;;;5109695;28;20225;-64
2022/02/25 05:06:26;;;;;;;10.57;4.55;;;7.60;96.30;;;;;;5100403;28;20227;-63
2022/02/25 05:08:54;;;;;;;7.25;4.72;;;7.60;96.30;;;;;;5097891;28;20227;-63
2022/02/25 05:11:21;;;;;;;12.73;7.00;;;7.50;96.30;;;;;;5104482;28;20250;-64
2022/02/25 05:13:48;;;;;;;6.20;5.28;;;7.50;96.30;;;;;;5109042;28;20226;-64
2022/02/25 05:21:47;;;;;;;8.63;4.55;;;7.50;96.40;;;;;;5109952;28;20219;-65
2022/02/25 05:24:14;;;;;;;11.90;6.68;;;7.50;96.40;;;;;;5099128;28;20215;-64
2022/02/25 05:26:41;;;;;;;5.80;5.20;;;7.50;96.50;;;;;;5109718;28;20219;-63
2022/02/25 05:29:08;;;;;;;7.13;4.70;;;7.50;96.50;;;;;;5099381;28;20227;-64
2022/02/25 05:31:36;;;;;;;6.80;4.18;;;7.50;96.60;;;;;;5111905;28;20385;-64
2022/02/25 05:34:03;;;;;;;5.53;4.07;;;7.50;96.40;;;;;;5101000;27;20226;-65
2022/02/25 05:36:30;;;;;;;9.98;6.93;;;7.50;96.50;;;;;;5113380;28;20223;-63
2022/02/25 05:38:57;;;;;;;5.90;3.40;;;7.50;96.50;;;;;;5103586;28;20224;-63
2022/02/25 05:41:24;;;;;;;4.80;3.30;;;7.50;96.50;;;;;;5106172;28;20312;-63
2022/02/25 05:43:51;;;;;;;3.30;2.95;;;7.50;96.50;;;;;;5100735;28;20310;-63
2022/02/25 05:46:18;;;;;;;5.43;3.90;;;7.50;96.50;;;;;;5099700;28;20729;-63
2022/02/25 05:48:46;;;;;;;5.28;3.35;;;7.50;96.50;;;;;;5110232;28;20211;-66
2022/02/25 05:51:13;;;;;;;4.10;3.40;;;7.50;96.40;;;;;;5109844;28;20306;-65
2022/02/25 05:53:40;;;;;;;3.33;2.70;;;7.50;96.40;;;;;;5102769;28;20219;-63
2022/02/25 05:56:06;;;;;;;4.53;3.53;;;7.50;96.50;;;;;;5109728;27;20223;-65
2022/02/25 05:58:33;;;;;;;5.25;4.65;;;7.50;96.50;;;;;;5112704;27;20223;-64
2022/02/25 06:01:00;;;;;;;8.13;2.78;;;7.40;96.50;;;;;;5111040;28;20396;-64
2022/02/25 06:03:27;;;;;;;6.20;4.97;;;7.40;96.50;;;;;;5111948;28;20285;-64
2022/02/25 06:05:55;;;;;;;10.63;5.40;;;7.40;96.40;;;;;;5111477;27;20274;-65
2022/02/25 06:08:22;;;;;;;5.63;3.60;;;7.40;96.50;;;;;;5111982;27;20229;-64
2022/02/25 06:10:49;;;;;;;6.28;3.65;;;7.40;96.40;;;;;;5111706;27;20685;-65
2022/02/25 06:13:16;;;;;;;6.07;2.75;;;7.50;96.40;;;;;;5111812;28;20215;-65
2022/02/25 06:15:43;;;;;;;4.43;3.00;;;7.50;96.40;;;;;;5112284;28;20221;-66
2022/02/25 06:18:10;;;;;;;13.23;3.88;;;7.30;96.20;;;;;;5112756;27;20226;-64
2022/02/25 06:20:38;;;;;;;7.70;5.13;;;7.20;96.50;;;;;;5112682;27;20223;-64
2022/02/25 06:23:06;;;;;;;7.13;4.07;;;7.30;96.60;;;;;;5112432;27;20219;-65
2022/02/25 06:25:33;;;;;;;6.50;3.08;;;7.20;96.60;;;;;;5112970;27;20272;-65
2022/02/25 06:28:00;;;;;;;3.65;2.90;;;7.10;96.50;;;;;;5112441;27;20241;-64
2022/02/25 06:30:27;;;;;;;7.68;4.47;;;7.20;96.60;;;;;;5112727;28;20227;-65
2022/02/25 06:32:54;;;;;;;5.15;3.10;;;7.20;96.70;;;;;;5112469;28;20283;-64
2022/02/25 06:35:23;;;;;;;5.43;3.63;;;7.10;96.60;;;;;;5112529;28;20223;-65
2022/02/25 06:37:50;;;;;;;4.03;3.28;;;7.10;96.70;;;;;;5112234;28;20246;-65
2022/02/25 06:40:18;;;;;;;8.57;3.67;;;7.20;96.80;;;;;;5113802;28;20227;-64
2022/02/25 06:42:45;;;;;;;7.82;3.72;;;7.20;96.80;;;;;;5116768;28;20253;-64
2022/02/25 06:45:12;;;;;;;7.07;3.90;;;7.30;96.80;;;;;;5116125;27;20218;-65
2022/02/25 06:47:39;;;;;;;10.15;3.92;;;7.30;96.60;;;;;;5116603;28;20219;-64
2022/02/25 06:50:08;;;;;;;10.27;4.30;;;7.20;96.30;;;;;;5116256;27;20349;-65
2022/02/25 06:52:36;;;;;;;7.22;3.67;;;7.30;96.60;;;;;;5116478;27;20243;-65
2022/02/25 06:55:03;;;;;;;5.63;4.00;;;7.40;96.50;;;;;;5116031;27;20222;-64
2022/02/25 06:57:31;;;;;;;5.47;3.47;;;7.40;96.30;;;;;;5116360;27;20226;-65
2022/02/25 06:59:58;;;;;;;8.65;4.93;;;7.50;96.20;;;;;;5116107;27;20310;-65
2022/02/25 07:02:25;;;;;;;11.00;5.97;;;7.50;96.00;;;;;;5116352;27;20669;-64
2022/02/25 07:04:52;;;;;;;11.15;7.38;;;7.50;96.10;;;;;;5116096;27;20673;-64
2022/02/25 07:07:18;;;;;;;7.07;6.10;;;7.50;96.00;;;;;;5116134;27;20221;-64
2022/02/25 07:09:45;;;;;;;8.20;5.30;;;7.50;96.00;;;;;;5116518;27;20218;-64
2022/02/25 07:12:12;;;;;;;9.30;5.78;;;7.50;95.90;;;;;;5115902;27;20657;-64
2022/02/25 07:14:40;;;;;;;8.98;4.60;;;7.50;95.90;;;;;;5116147;27;20383;-64
2022/02/25 07:17:07;;;;;;;9.32;4.90;;;7.60;95.80;;;;;;5115527;27;20696;-64
2022/02/25 07:19:34;;;;;;;4.82;3.67;;;7.60;95.60;;;;;;5116186;27;20234;-63
2022/02/25 07:22:01;;;;;;;4.75;3.00;;;7.70;95.50;;;;;;5115575;27;20227;-63
2022/02/25 07:24:28;;;;;;;5.60;4.68;;;7.70;95.50;;;;;;5115932;27;20223;-64
2022/02/25 07:26:54;;;;;;;7.13;3.97;;;7.80;95.40;;;;;;5104143;27;20211;-65
2022/02/25 07:29:21;;;;;;;5.90;4.72;;;7.80;95.10;;;;;;5095558;28;20224;-63
2022/02/25 07:31:49;;;;;;;8.55;3.17;;;7.80;95.00;;;;;;5114784;28;20227;-64
2022/02/25 07:34:16;;;;;;;4.68;3.55;;;7.80;94.70;;;;;;5115669;28;20215;-64
2022/02/25 07:36:43;;;;;;;4.05;2.70;;;7.90;94.70;;;;;;5115813;27;20217;-65
2022/02/25 07:39:10;;;;;;;5.93;3.60;;;7.90;94.60;;;;;;5115088;28;20233;-64
2022/02/25 07:41:37;;;;;;;9.48;4.18;;;7.90;94.50;;;;;;5115627;28;20241;-64
2022/02/25 07:44:07;;;;;;;7.70;5.00;;;8.00;94.60;;;;;;5115247;28;20227;-65
2022/02/25 07:46:34;;;;;;;7.65;6.38;;;8.10;94.60;;;;;;5115588;28;20227;-63
2022/02/25 07:49:02;;;;;;;5.43;3.70;;;8.10;94.50;;;;;;5115120;28;20219;-64
2022/02/25 07:51:30;;;;;;;14.25;6.13;;;8.10;94.40;;;;;;5114364;28;20266;-63
2022/02/25 07:54:01;;;;;;;14.75;6.25;;;8.10;94.20;;;;;;5114995;27;20235;-64
2022/02/25 07:56:28;;;;;;;6.75;4.68;;;8.20;94.30;;;;;;5115374;27;20270;-64
2022/02/25 07:58:55;;;;;;;6.78;3.33;;;8.20;94.10;;;;;;5115051;27;20238;-64
2022/02/25 08:01:22;;;;;;;4.28;2.95;;;8.20;93.80;;;;;;5114878;27;20309;-64
2022/02/25 08:03:48;;;;;;;6.28;3.00;;;8.20;93.70;;;;;;5115396;27;20215;-63
2022/02/25 08:06:19;;;;;;;4.85;2.75;;;8.20;93.60;;;;;;5114676;27;20215;-65
2022/02/25 08:08:46;;;;;;;4.07;3.42;;;8.20;93.50;;;;;;5115171;27;20699;-65
2022/02/25 08:11:13;;;;;;;8.25;3.03;;;8.20;93.50;;;;;;5114542;27;20226;-63
2022/02/25 08:13:40;;;;;;;7.95;5.13;;;8.20;93.40;;;;;;5115133;27;20276;-65
2022/02/25 08:16:07;;;;;;;8.85;5.05;;;8.20;93.30;;;;;;5114576;27;20231;-65
2022/02/25 08:18:34;;;;;;;6.70;4.47;;;8.30;93.60;;;;;;5115114;27;20621;-65
2022/02/25 08:21:02;;;;;;;5.22;4.07;;;8.20;93.30;;;;;;5114384;27;20250;-65
2022/02/25 08:23:31;;;;;;;5.88;5.32;;;8.20;93.20;;;;;;5114885;27;20559;-65
2022/02/25 08:25:58;;;;;;;9.60;4.80;;;8.20;93.20;;;;;;5111452;27;20220;-64
2022/02/25 08:28:24;;;;;;;6.07;4.22;;;8.20;93.20;;;;;;5094448;28;20697;-64
2022/02/25 08:30:51;;;;;;;7.80;3.65;;;8.20;93.20;;;;;;5094644;28;20223;-64
2022/02/25 08:33:20;;;;;;;4.80;3.30;;;8.30;93.20;;;;;;5094126;28;20224;-64
2022/02/25 08:35:47;;;;;;;4.97;2.88;;;8.30;93.10;;;;;;5094409;28;20573;-64
2022/02/25 08:38:17;;;;;;;3.83;2.50;;;8.30;93.00;;;;;;5093733;28;20239;-65
2022/02/25 08:40:46;;;;;;;4.70;3.80;;;8.30;93.00;;;;;;5094327;28;20235;-65
2022/02/25 08:43:13;;;;;;;5.55;3.67;;;8.40;93.20;;;;;;5093870;28;20555;-64
2022/02/25 08:45:41;;;;;;;5.28;2.75;;;8.40;93.20;;;;;;5094202;28;20611;-64
2022/02/25 08:48:08;;;;;;;5.03;4.13;;;8.40;93.00;;;;;;5093860;28;20236;-64
2022/02/25 08:50:35;;;;;;;7.90;3.97;;;8.50;93.10;;;;;;5093892;28;20230;-64
2022/02/25 08:53:02;;;;;;;6.57;3.20;;;8.50;92.80;;;;;;5093382;28;20223;-64
2022/02/25 08:55:29;;;;;;;5.25;3.45;;;8.50;92.70;;;;;;5094070;28;20556;-65
2022/02/25 08:57:57;;;;;;;3.67;2.75;;;8.60;92.50;;;;;;5112140;27;20234;-64
2022/02/25 09:00:26;;;;;;;8.23;3.38;;;8.60;92.40;;;;;;5113888;27;20254;-64
2022/02/25 09:02:54;;;;;;;3.78;3.15;;;8.70;92.50;;;;;;5113941;27;20245;-63
2022/02/25 09:05:22;;;;;;;14.38;3.13;;;8.60;92.10;;;;;;5101594;27;20219;-64
2022/02/25 09:07:50;;;;;;;7.15;2.65;;;8.70;92.10;;;;;;5093703;28;20246;-64
2022/02/25 09:10:18;;;;;;;3.55;2.35;;;8.60;92.00;;;;;;5093337;28;20238;-64
2022/02/25 09:12:46;;;;;;;4.15;2.80;;;8.70;91.90;;;;;;5093644;28;20231;-64
2022/02/25 09:15:17;;;;;;;6.50;2.88;;;8.70;91.80;;;;;;5093200;28;20305;-64
2022/02/25 09:17:44;;;;;;;9.15;3.10;;;8.80;91.70;;;;;;5095367;28;20220;-64
2022/02/25 09:20:12;;;;;;;3.15;2.50;;;8.80;91.60;;;;;;5113467;27;20218;-65
2022/02/25 09:22:39;;;;;;;9.13;4.97;;;8.80;91.50;;;;;;5113896;27;20226;-64
2022/02/25 09:25:07;;;;;;;10.55;3.25;;;8.80;91.50;;;;;;5113379;27;20223;-64
2022/02/25 09:27:34;;;;;;;7.20;2.50;;;8.80;91.40;;;;;;5113841;27;20219;-64
2022/02/25 09:30:02;;;;;;;7.82;3.20;;;8.80;91.40;;;;;;5113627;27;20227;-65
2022/02/25 09:32:30;;;;;;;5.38;3.80;;;8.90;91.20;;;;;;5113426;27;20294;-65
2022/02/25 09:34:57;;;;;;;7.85;3.20;;;9.00;91.00;;;;;;5113718;27;20230;-65
2022/02/25 09:37:24;;;;;;;7.18;3.03;;;9.00;91.00;;;;;;5112928;27;20234;-64
2022/02/25 09:39:51;;;;;;;5.40;2.30;;;9.00;91.10;;;;;;5113713;27;20241;-64
2022/02/25 09:42:21;;;;;;;7.40;3.47;;;9.00;91.20;;;;;;5113221;27;20292;-64
2022/02/25 09:44:48;;;;;;;10.85;3.17;;;9.00;91.10;;;;;;5113535;27;20755;-64
2022/02/25 09:47:15;;;;;;;8.38;3.25;;;8.90;91.20;;;;;;5113074;27;20219;-65
2022/02/25 09:49:43;;;;;;;7.70;3.97;;;9.00;91.30;;;;;;5113331;27;20390;-65
2022/02/25 09:52:13;;;;;;;11.52;4.72;;;9.00;91.40;;;;;;5112334;27;20242;-64
2022/02/25 09:54:40;;;;;;;10.32;4.90;;;9.10;91.40;;;;;;5113310;27;20229;-64
2022/02/25 09:57:07;;;;;;;7.40;3.58;;;9.10;91.20;;;;;;5112621;27;20223;-65
2022/02/25 09:59:34;;;;;;;7.53;3.60;;;9.20;91.10;;;;;;5112980;27;20231;-64
2022/02/25 10:02:03;;;;;;;6.47;4.07;;;9.30;90.90;;;;;;5112886;27;20241;-65
2022/02/25 10:04:31;;;;;;;8.52;3.47;;;9.30;90.90;;;;;;5112456;27;20222;-64
2022/02/25 10:07:00;;;;;;;5.20;3.13;;;9.30;90.70;;;;;;5113128;27;20241;-65
2022/02/25 10:09:31;;;;;;;4.35;3.90;;;9.40;90.60;;;;;;5112882;27;20585;-65
2022/02/25 10:12:04;;;;;;;9.27;3.30;;;9.40;90.60;;;;;;5113162;27;20332;-64
2022/02/25 10:14:33;;;;;;;4.78;2.55;;;9.40;90.50;;;;;;5112020;27;20223;-64
2022/02/25 10:17:08;;;;;;;5.25;2.75;;;9.50;90.40;;;;;;5113398;27;20233;-65
2022/02/25 10:19:34;;;;;;;7.25;3.00;;;9.60;90.20;;;;;;5112795;27;20249;-65
2022/02/25 10:22:15;;;;;;;5.65;3.67;;;9.70;90.30;;;;;;5112831;27;20234;-64
2022/02/25 10:24:46;;;;;;;5.90;3.78;;;9.70;90.20;;;;;;5112637;27;21046;-64
2022/02/25 10:27:21;;;;;;;4.75;3.13;;;9.80;90.40;;;;;;5113111;27;20677;-64
2022/02/25 10:30:04;;;;;;;7.60;3.35;;;10.00;89.10;;;;;;5112710;27;21002;-65
2022/02/25 10:32:36;;;;;;;4.28;2.30;;;9.90;88.20;;;;;;5112373;27;20684;-65
2022/02/25 10:35:22;;;;;;;6.13;3.10;;;10.00;87.00;;;;;;5112548;27;20693;-65
2022/02/25 10:38:00;;;;;;;5.80;3.10;;;10.10;86.50;;;;;;5112480;27;20223;-64
2022/02/25 10:40:29;;;;;;;2.60;2.22;;;10.00;86.30;;;;;;5112468;27;20226;-65
2022/02/25 10:42:56;;;;;;;4.88;2.20;;;10.10;86.20;;;;;;5113055;27;20684;-65
2022/02/25 10:45:36;;;;;;;7.38;2.70;;;10.00;85.80;;;;;;5112956;27;20233;-64
2022/02/25 10:48:07;;;;;;;5.03;2.53;;;10.00;85.40;;;;;;5112946;27;20293;-65
2022/02/25 10:50:45;;;;;;;10.20;5.72;;;10.10;85.50;;;;;;5112406;27;20227;-65
2022/02/25 10:53:16;;;;;;;7.28;3.90;;;10.00;85.80;;;;;;5112221;27;20598;-64
2022/02/25 10:55:44;;;;;;;6.78;3.17;;;10.00;86.50;;;;;;5112947;27;20245;-65
2022/02/25 10:58:11;;;;;;;6.82;2.78;;;10.10;87.10;;;;;;5112026;27;20223;-64
2022/02/25 11:00:37;;;;;;;4.90;2.20;;;10.00;86.70;;;;;;5112453;27;21621;-65
2022/02/25 11:03:04;;;;;;;5.15;3.20;;;9.90;87.10;;;;;;5112612;27;20223;-64
2022/02/25 11:05:33;;;;;;;6.22;3.90;;;10.00;85.90;;;;;;5112009;27;20215;-65
2022/02/25 11:08:01;;;;;;;5.85;2.83;;;10.00;86.30;;;;;;5112626;27;20223;-65
2022/02/25 11:10:31;;;;;;;5.78;2.72;;;10.00;86.40;;;;;;5111977;27;20235;-65
2022/02/25 11:13:04;;;;;;;4.28;2.70;;;10.00;86.30;;;;;;5112588;27;20693;-65
2022/02/25 11:15:33;;;;;;;9.57;3.55;;;10.10;86.30;;;;;;5112351;27;21286;-64
2022/02/25 11:18:00;;;;;;;3.75;2.38;;;10.10;86.40;;;;;;5112535;27;20673;-64
2022/02/25 11:20:29;;;;;;;8.38;2.90;;;10.10;86.20;;;;;;5111785;27;20227;-64
2022/02/25 11:23:00;;;;;;;3.38;1.90;;;10.00;85.60;;;;;;5112333;27;20237;-64
2022/02/25 11:25:27;;;;;;;3.40;2.47;;;10.00;85.40;;;;;;5112153;27;20223;-64
2022/02/25 11:27:56;;;;;;;7.78;2.45;;;10.00;85.60;;;;;;5115996;27;20223;-64
2022/02/25 11:30:28;;;;;;;11.65;2.58;;;10.10;85.60;;;;;;5115451;27;20223;-63
2022/02/25 11:32:58;;;;;;;8.50;2.90;;;10.10;85.80;;;;;;5115815;27;20280;-64
2022/02/25 11:35:27;;;;;;;5.85;2.78;;;10.10;85.30;;;;;;5115229;27;20223;-64
2022/02/25 11:38:02;;;;;;;4.38;2.25;;;10.20;85.60;;;;;;5115779;27;20239;-64
2022/02/25 11:40:50;;;;;;;8.75;4.00;;;10.20;85.20;;;;;;5115144;27;20257;-65
2022/02/25 11:43:35;;;;;;;12.07;6.93;;;10.20;84.30;;;;;;5115481;27;20219;-64
2022/02/25 11:46:02;;;;;;;4.40;2.35;;;10.10;84.50;;;;;;5115748;27;20219;-65
2022/02/25 11:48:42;;;;;;;6.25;2.92;;;10.00;84.00;;;;;;5115178;27;20222;-64
2022/02/25 11:51:29;;;;;;;3.25;2.40;;;10.00;84.00;;;;;;5115467;27;20243;-64
2022/02/25 11:54:28;;;;;;;6.07;2.45;;;10.00;84.50;;;;;;5115568;27;20227;-64
2022/02/25 11:57:32;;;;;;;6.18;2.65;;;9.90;87.10;;;;;;5115212;27;20242;-64
2022/02/25 12:00:18;;;;;;;2.97;2.78;;;9.90;86.80;;;;;;5114860;27;20734;-65
2022/02/25 12:03:13;;;;;;;7.55;2.72;;;9.90;86.80;;;;;;5115400;27;20227;-65
2022/02/25 12:05:43;;;;;;;5.40;2.85;;;9.90;87.10;;;;;;5115330;27;20290;-65
2022/02/25 12:08:21;;;;;;;3.70;2.58;;;10.00;86.20;;;;;;5115452;27;20223;-65
2022/02/25 12:10:48;;;;;;;5.15;2.90;;;10.00;86.30;;;;;;5114834;27;20302;-65
2022/02/25 12:13:23;;;;;;;6.07;2.70;;;10.00;85.00;;;;;;5115098;27;20230;-65
2022/02/25 12:15:52;;;;;;;4.80;2.28;;;9.90;86.30;;;;;;5114642;27;20222;-65
2022/02/25 12:18:19;;;;;;;5.80;2.63;;;9.80;86.60;;;;;;5098538;27;20285;-64
2022/02/25 12:20:50;;;;;;;3.97;3.10;;;9.80;87.40;;;;;;5112626;27;20336;-63
2022/02/25 12:23:20;;;;;;;7.75;3.05;;;9.80;88.20;;;;;;5114969;27;20215;-64
2022/02/25 12:25:52;;;;;;;5.75;3.05;;;9.80;87.60;;;;;;5112583;27;20548;-64
2022/02/25 12:28:55;;;;;;;9.05;2.83;;;9.80;87.20;;;;;;5113208;28;20291;-64
2022/02/25 12:31:42;;;;;;;4.88;2.65;;;9.80;86.80;;;;;;5113368;27;20602;-65
2022/02/25 12:34:09;;;;;;;6.80;2.60;;;9.80;87.60;;;;;;5114674;28;20689;-65
2022/02/25 12:36:43;;;;;;;5.90;3.03;;;9.80;87.50;;;;;;5114327;28;20223;-65
2022/02/25 12:39:14;;;;;;;3.55;2.13;;;9.80;87.50;;;;;;5113825;28;20776;-65
2022/02/25 12:41:43;;;;;;;5.30;2.47;;;9.80;87.50;;;;;;5114138;28;20223;-64
2022/02/25 12:44:12;;;;;;;4.30;2.17;;;9.80;86.30;;;;;;5114422;27;20234;-65
2022/02/25 12:46:42;;;;;;;7.00;3.63;;;9.80;86.20;;;;;;5114244;28;20238;-65
2022/02/25 12:49:12;;;;;;;8.65;6.20;;;9.80;86.10;;;;;;5114142;28;20692;-65
2022/02/25 12:51:39;;;;;;;5.63;4.75;;;9.80;86.10;;;;;;5113813;27;20231;-65
2022/02/25 12:54:08;;;;;;;5.03;3.90;;;9.70;86.00;;;;;;5114420;28;20227;-64
2022/02/25 12:56:37;;;;;;;7.95;4.18;;;9.80;86.50;;;;;;5113726;27;20227;-64
2022/02/25 12:59:06;;;;;;;6.53;2.63;;;9.80;87.70;;;;;;5114355;28;20254;-64
2022/02/25 13:01:35;;;;;;;8.75;2.72;;;9.70;89.20;;;;;;5113570;28;20609;-65
2022/02/25 13:04:06;;;;;;;8.23;2.20;;;9.60;90.00;;;;;;5114113;28;20219;-65
2022/02/25 13:06:35;;;;;;;5.50;2.13;;;9.50;90.60;;;;;;5113790;27;20234;-65
2022/02/25 13:09:04;;;;;;;4.22;2.08;;;9.40;90.40;;;;;;5114099;28;20234;-64